createdAt,value
2023-04-18T00:00:15.909Z,70.1979
2023-04-18T00:01:16.429Z,70.2258
2023-04-18T00:02:16.984Z,70.2590
2023-04-18T00:03:17.944Z,70.2805
2023-04-18T00:04:19.800Z,70.3101
2023-04-18T00:05:21.766Z,70.3268
2023-04-18T00:06:22.673Z,70.3605
2023-04-18T00:07:23.156Z,70.3971
2023-04-18T00:08:23.632Z,70.4144
2023-04-18T00:09:24.152Z,70.4026
2023-04-18T00:10:24.743Z,70.3988
2023-04-18T00:11:25.199Z,70.4490
2023-04-18T00:12:25.816Z,70.5251
2023-04-18T00:13:26.252Z,70.6009
2023-04-18T00:14:26.763Z,70.6420
2023-04-18T00:15:27.218Z,70.6586
2023-04-18T00:16:27.818Z,70.6661
2023-04-18T00:17:28.414Z,70.6694
2023-04-18T00:18:28.946Z,70.6870
2023-04-18T00:19:29.418Z,70.7139
2023-04-18T00:20:29.928Z,70.6993
2023-04-18T00:21:30.346Z,70.6819
2023-04-18T00:22:30.830Z,70.6893
2023-04-18T00:23:31.432Z,70.6757
2023-04-18T00:24:31.889Z,70.6693
2023-04-18T00:25:32.459Z,70.6420
2023-04-18T00:26:32.919Z,70.6249
2023-04-18T00:27:33.432Z,70.6100
2023-04-18T00:28:34.003Z,70.5870
2023-04-18T00:29:34.473Z,70.5639
2023-04-18T00:30:35.998Z,70.5362
2023-04-18T00:31:36.566Z,70.5184
2023-04-18T00:32:37.053Z,70.5046
2023-04-18T00:33:37.631Z,70.4830
2023-04-18T00:34:38.088Z,70.4566
2023-04-18T00:35:38.579Z,70.4318
2023-04-18T00:36:39.078Z,70.4046
2023-04-18T00:37:39.529Z,70.3800
2023-04-18T00:38:40.114Z,70.3554
2023-04-18T00:39:40.656Z,70.3306
2023-04-18T00:40:41.200Z,70.3052
2023-04-18T00:41:41.723Z,70.2731
2023-04-18T00:42:42.410Z,70.2369
2023-04-18T00:43:43.072Z,70.2162
2023-04-18T00:44:43.616Z,70.2035
2023-04-18T00:45:44.073Z,70.2089
2023-04-18T00:46:44.554Z,70.2089
2023-04-18T00:47:45.105Z,70.2147
2023-04-18T00:48:45.657Z,70.2213
2023-04-18T00:49:46.152Z,70.2303
2023-04-18T00:50:46.654Z,70.2198
2023-04-18T00:51:47.178Z,70.2206
2023-04-18T00:52:47.700Z,70.2264
2023-04-18T00:53:48.343Z,70.2496
2023-04-18T00:54:49.015Z,70.2631
2023-04-18T00:55:49.524Z,70.2909
2023-04-18T00:56:49.973Z,70.3265
2023-04-18T00:57:50.510Z,70.3661
2023-04-18T00:58:50.953Z,70.4054
2023-04-18T00:59:51.452Z,70.4156
2023-04-18T01:00:51.927Z,70.4280
2023-04-18T01:01:52.493Z,70.4262
2023-04-18T01:02:53.190Z,70.4200
2023-04-18T01:03:54.630Z,70.4078
2023-04-18T01:04:55.580Z,70.3891
2023-04-18T01:05:56.182Z,70.3606
2023-04-18T01:06:56.651Z,70.3353
2023-04-18T01:07:57.093Z,70.3090
2023-04-18T01:08:57.606Z,70.2850
2023-04-18T01:09:58.054Z,70.2564
2023-04-18T01:10:58.499Z,70.2478
2023-04-18T01:11:58.965Z,70.2768
2023-04-18T01:12:59.426Z,70.2953
2023-04-18T01:13:59.878Z,70.3216
2023-04-18T01:15:00.370Z,70.3573
2023-04-18T01:16:00.850Z,70.3909
2023-04-18T01:17:01.352Z,70.4043
2023-04-18T01:18:01.892Z,70.4480
2023-04-18T01:19:02.416Z,70.5629
2023-04-18T01:20:02.952Z,70.6452
2023-04-18T01:21:03.463Z,70.6428
2023-04-18T01:22:03.951Z,70.6174
2023-04-18T01:23:04.431Z,70.5816
2023-04-18T01:24:04.904Z,70.5513
2023-04-18T01:25:05.361Z,70.5344
2023-04-18T01:26:05.822Z,70.5177
2023-04-18T01:27:06.303Z,70.4947
2023-04-18T01:28:06.731Z,70.4757
2023-04-18T01:29:07.240Z,70.4450
2023-04-18T01:30:07.686Z,70.4125
2023-04-18T01:31:08.159Z,70.3994
2023-04-18T01:32:08.649Z,70.3742
2023-04-18T01:33:09.110Z,70.3543
2023-04-18T01:34:09.629Z,70.3262
2023-04-18T01:35:10.087Z,70.3011
2023-04-18T01:36:10.562Z,70.2732
2023-04-18T01:37:11.075Z,70.2433
2023-04-18T01:38:11.628Z,70.2223
2023-04-18T01:39:12.195Z,70.1997
2023-04-18T01:40:12.705Z,70.1813
2023-04-18T01:41:13.191Z,70.1795
2023-04-18T01:42:13.660Z,70.2056
2023-04-18T01:43:14.105Z,70.2281
2023-04-18T01:44:14.776Z,70.2305
2023-04-18T01:45:15.894Z,70.2211
2023-04-18T01:46:16.404Z,70.2154
2023-04-18T01:47:16.844Z,70.2039
2023-04-18T01:48:17.281Z,70.1969
2023-04-18T01:49:17.769Z,70.1880
2023-04-18T01:50:18.334Z,70.1700
2023-04-18T01:51:18.911Z,70.1499
2023-04-18T01:52:19.391Z,70.1276
2023-04-18T01:53:19.843Z,70.1058
2023-04-18T01:54:20.366Z,70.0895
2023-04-18T01:55:20.861Z,70.0668
2023-04-18T01:56:21.480Z,70.0459
2023-04-18T01:57:22.282Z,70.0300
2023-04-18T01:58:23.118Z,70.0250
2023-04-18T01:59:23.581Z,70.0447
2023-04-18T02:00:24.092Z,70.0765
2023-04-18T02:01:24.701Z,70.0763
2023-04-18T02:02:25.565Z,70.0593
2023-04-18T02:03:26.432Z,70.0443
2023-04-18T02:04:27.502Z,70.0282
2023-04-18T02:05:28.017Z,70.0121
2023-04-18T02:06:28.567Z,69.9901
2023-04-18T02:07:29.100Z,69.9698
2023-04-18T02:08:29.635Z,69.9459
2023-04-18T02:09:30.221Z,69.9456
2023-04-18T02:10:30.748Z,69.9883
2023-04-18T02:11:31.317Z,70.0222
2023-04-18T02:12:31.871Z,70.0241
2023-04-18T02:13:32.488Z,70.0183
2023-04-18T02:14:33.030Z,70.0152
2023-04-18T02:15:33.595Z,70.0318
2023-04-18T02:16:34.202Z,70.0740
2023-04-18T02:17:34.905Z,70.1191
2023-04-18T02:18:35.517Z,70.1483
2023-04-18T02:19:36.050Z,70.1662
2023-04-18T02:20:36.565Z,70.1771
2023-04-18T02:21:37.076Z,70.1748
2023-04-18T02:22:37.682Z,70.1681
2023-04-18T02:23:38.205Z,70.1696
2023-04-18T02:24:38.736Z,70.1717
2023-04-18T02:25:39.260Z,70.1761
2023-04-18T02:26:39.860Z,70.1739
2023-04-18T02:27:40.379Z,70.1687
2023-04-18T02:28:40.966Z,70.1689
2023-04-18T02:29:41.463Z,70.1654
2023-04-18T02:30:41.942Z,70.1836
2023-04-18T02:31:42.584Z,70.2248
2023-04-18T02:32:43.171Z,70.2942
2023-04-18T02:33:43.679Z,70.3728
2023-04-18T02:34:44.255Z,70.4166
2023-04-18T02:35:44.832Z,70.4232
2023-04-18T02:36:45.443Z,70.4251
2023-04-18T02:37:46.024Z,70.4231
2023-04-18T02:38:46.853Z,70.4294
2023-04-18T02:39:47.413Z,70.4460
2023-04-18T02:40:47.943Z,70.4569
2023-04-18T02:41:48.573Z,70.4729
2023-04-18T02:42:49.086Z,70.4933
2023-04-18T02:43:49.631Z,70.5082
2023-04-18T02:44:50.117Z,70.5192
2023-04-18T02:45:50.702Z,70.5234
2023-04-18T02:46:51.403Z,70.5200
2023-04-18T02:47:56.176Z,70.5128
2023-04-18T02:48:52.550Z,70.5120
2023-04-18T02:49:53.105Z,70.5090
2023-04-18T02:50:53.752Z,70.5117
2023-04-18T02:51:54.282Z,70.5145
2023-04-18T02:52:54.859Z,70.5384
2023-04-18T02:53:55.393Z,70.5631
2023-04-18T02:54:55.991Z,70.5738
2023-04-18T02:55:56.489Z,70.5735
2023-04-18T02:56:57.133Z,70.5786
2023-04-18T02:57:57.721Z,70.5715
2023-04-18T02:58:58.253Z,70.5824
2023-04-18T02:59:58.793Z,70.5971
2023-04-18T03:00:59.404Z,70.6164
2023-04-18T03:02:00.024Z,70.6304
2023-04-18T03:03:00.655Z,70.6389
2023-04-18T03:04:01.211Z,70.6484
2023-04-18T03:05:01.775Z,70.6519
2023-04-18T03:06:02.338Z,70.6488
2023-04-18T03:07:02.903Z,70.6467
2023-04-18T03:08:03.622Z,70.6487
2023-04-18T03:09:04.401Z,70.6656
2023-04-18T03:10:04.990Z,70.6755
2023-04-18T03:11:05.460Z,70.6826
2023-04-18T03:12:06.158Z,70.6842
2023-04-18T03:13:06.649Z,70.6873
2023-04-18T03:14:07.180Z,70.6828
2023-04-18T03:15:07.756Z,70.6790
2023-04-18T03:16:08.317Z,70.6712
2023-04-18T03:17:09.001Z,70.6686
2023-04-18T03:18:09.543Z,70.6600
2023-04-18T03:19:10.098Z,70.6531
2023-04-18T03:20:10.649Z,70.6437
2023-04-18T03:21:11.233Z,70.6296
2023-04-18T03:22:11.788Z,70.6275
2023-04-18T03:23:12.299Z,70.6253
2023-04-18T03:24:13.613Z,70.6267
2023-04-18T03:25:14.888Z,70.6506
2023-04-18T03:26:15.419Z,70.6755
2023-04-18T03:27:16.000Z,70.7049
2023-04-18T03:28:16.527Z,70.7274
2023-04-18T03:29:17.122Z,70.7345
2023-04-18T03:30:17.654Z,70.7468
2023-04-18T03:31:18.258Z,70.7538
2023-04-18T03:32:19.017Z,70.7569
2023-04-18T03:33:19.743Z,70.7541
2023-04-18T03:34:20.227Z,70.7436
2023-04-18T03:35:20.726Z,70.7427
2023-04-18T03:36:21.299Z,70.7427
2023-04-18T03:37:21.870Z,70.7437
2023-04-18T03:38:22.606Z,70.7394
2023-04-18T03:39:23.212Z,70.7341
2023-04-18T03:40:23.764Z,70.7370
2023-04-18T03:41:24.310Z,70.7361
2023-04-18T03:42:24.849Z,70.7549
2023-04-18T03:43:25.461Z,70.7670
2023-04-18T03:44:26.080Z,70.7821
2023-04-18T03:45:26.593Z,70.7951
2023-04-18T03:46:27.132Z,70.8032
2023-04-18T03:47:27.695Z,70.8116
2023-04-18T03:48:28.229Z,70.8281
2023-04-18T03:49:28.746Z,70.8423
2023-04-18T03:50:29.345Z,70.8520
2023-04-18T03:51:29.876Z,70.8525
2023-04-18T03:52:30.467Z,70.8559
2023-04-18T03:53:31.015Z,70.8701
2023-04-18T03:54:31.501Z,70.9023
2023-04-18T03:55:32.049Z,70.9204
2023-04-18T03:56:32.569Z,70.9201
2023-04-18T03:57:33.193Z,70.9148
2023-04-18T03:58:33.720Z,70.9118
2023-04-18T03:59:34.274Z,70.9001
2023-04-18T04:00:34.860Z,70.8945
2023-04-18T04:01:35.425Z,70.8896
2023-04-18T04:02:36.144Z,70.8823
2023-04-18T04:03:37.275Z,70.8762
2023-04-18T04:04:38.256Z,70.8770
2023-04-18T04:05:38.949Z,70.8749
2023-04-18T04:06:39.499Z,70.8752
2023-04-18T04:07:40.154Z,70.8832
2023-04-18T04:08:40.676Z,70.8975
2023-04-18T04:09:41.262Z,70.9122
2023-04-18T04:10:41.754Z,70.9283
2023-04-18T04:11:42.359Z,70.9416
2023-04-18T04:12:42.921Z,70.9560
2023-04-18T04:13:43.484Z,70.9637
2023-04-18T04:14:44.093Z,70.9693
2023-04-18T04:15:44.751Z,70.9699
2023-04-18T04:16:45.326Z,70.9714
2023-04-18T04:17:46.165Z,70.9742
2023-04-18T04:18:46.762Z,70.9944
2023-04-18T04:19:47.350Z,71.0193
2023-04-18T04:20:47.973Z,71.0419
2023-04-18T04:21:48.599Z,71.0577
2023-04-18T04:22:49.176Z,71.0662
2023-04-18T04:23:49.762Z,71.0707
2023-04-18T04:24:50.475Z,71.0768
2023-04-18T04:25:51.021Z,71.0825
2023-04-18T04:26:51.661Z,71.0959
2023-04-18T04:27:52.239Z,71.1019
2023-04-18T04:28:52.853Z,71.1051
2023-04-18T04:29:53.367Z,71.1075
2023-04-18T04:30:53.929Z,71.1115
2023-04-18T04:31:54.467Z,71.1144
2023-04-18T04:32:55.251Z,71.1149
2023-04-18T04:33:55.842Z,71.1122
2023-04-18T04:34:56.490Z,71.1063
2023-04-18T04:35:57.101Z,71.1023
2023-04-18T04:36:57.663Z,71.0938
2023-04-18T04:37:58.216Z,71.0900
2023-04-18T04:38:58.796Z,71.0858
2023-04-18T04:39:59.371Z,71.0838
2023-04-18T04:40:59.919Z,71.0744
2023-04-18T04:42:00.864Z,71.0681
2023-04-18T04:43:01.460Z,71.0570
2023-04-18T04:44:02.063Z,71.0501
2023-04-18T04:45:02.636Z,71.0262
2023-04-18T04:46:03.181Z,71.0071
2023-04-18T04:47:03.931Z,70.9959
2023-04-18T04:48:04.500Z,70.9827
2023-04-18T04:49:05.073Z,70.9697
2023-04-18T04:50:05.607Z,70.9615
2023-04-18T04:51:06.173Z,70.9625
2023-04-18T04:52:06.735Z,70.9689
2023-04-18T04:53:07.319Z,70.9799
2023-04-18T04:54:07.831Z,70.9844
2023-04-18T04:55:08.434Z,70.9978
2023-04-18T04:56:09.180Z,71.0107
2023-04-18T04:57:09.829Z,71.0264
2023-04-18T04:58:10.359Z,71.0414
2023-04-18T04:59:10.884Z,71.0631
2023-04-18T05:00:11.365Z,71.0772
2023-04-18T05:01:11.999Z,71.0849
2023-04-18T05:02:12.620Z,71.0914
2023-04-18T05:03:13.606Z,71.1030
2023-04-18T05:04:15.073Z,71.1139
2023-04-18T05:05:16.827Z,71.1255
2023-04-18T05:06:17.450Z,71.1280
2023-04-18T05:07:18.060Z,71.1252
2023-04-18T05:08:18.669Z,71.1290
2023-04-18T05:09:19.278Z,71.1360
2023-04-18T05:10:19.851Z,71.1502
2023-04-18T05:11:20.425Z,71.1667
2023-04-18T05:12:21.007Z,71.1780
2023-04-18T05:13:21.580Z,71.1846
2023-04-18T05:14:22.190Z,71.1909
2023-04-18T05:15:22.832Z,71.1939
2023-04-18T05:16:23.415Z,71.1935
2023-04-18T05:17:24.195Z,71.1961
2023-04-18T05:18:24.772Z,71.1936
2023-04-18T05:19:25.350Z,71.1977
2023-04-18T05:20:26.199Z,71.2056
2023-04-18T05:21:26.706Z,71.2145
2023-04-18T05:22:27.313Z,71.2198
2023-04-18T05:23:27.894Z,71.2250
2023-04-18T05:24:28.503Z,71.2259
2023-04-18T05:25:29.058Z,71.2240
2023-04-18T05:26:29.599Z,71.2206
2023-04-18T05:27:30.177Z,71.2172
2023-04-18T05:28:30.761Z,71.2192
2023-04-18T05:29:31.411Z,71.2200
2023-04-18T05:30:32.054Z,71.2248
2023-04-18T05:31:32.664Z,71.2300
2023-04-18T05:32:33.288Z,71.2533
2023-04-18T05:33:33.831Z,71.2720
2023-04-18T05:34:36.102Z,71.2813
2023-04-18T05:35:34.781Z,71.2939
2023-04-18T05:36:35.381Z,71.2951
2023-04-18T05:37:36.010Z,71.3087
2023-04-18T05:38:36.657Z,71.3315
2023-04-18T05:39:37.246Z,71.3511
2023-04-18T05:40:37.859Z,71.3598
2023-04-18T05:41:38.502Z,71.3684
2023-04-18T05:42:39.094Z,71.3722
2023-04-18T05:43:39.705Z,71.3780
2023-04-18T05:44:41.336Z,71.3920
2023-04-18T05:45:41.928Z,71.4039
2023-04-18T05:46:42.559Z,71.4281
2023-04-18T05:47:43.336Z,71.4576
2023-04-18T05:48:43.906Z,71.4767
2023-04-18T05:49:44.596Z,71.4938
2023-04-18T05:50:45.210Z,71.5081
2023-04-18T05:51:45.826Z,71.5170
2023-04-18T05:52:46.393Z,71.5456
2023-04-18T05:53:46.981Z,71.5970
2023-04-18T05:54:47.565Z,71.6374
2023-04-18T05:55:48.105Z,71.6558
2023-04-18T05:56:48.864Z,71.6723
2023-04-18T05:57:49.695Z,71.6736
2023-04-18T05:58:50.316Z,71.6675
2023-04-18T05:59:50.893Z,71.6580
2023-04-18T06:00:51.447Z,71.6551
2023-04-18T06:01:52.157Z,71.6490
2023-04-18T06:02:52.937Z,71.6475
2023-04-18T06:03:54.437Z,71.6522
2023-04-18T06:04:55.745Z,71.6656
2023-04-18T06:05:57.062Z,71.6788
2023-04-18T06:06:58.153Z,71.6934
2023-04-18T06:07:58.747Z,71.7042
2023-04-18T06:08:59.377Z,71.7021
2023-04-18T06:09:59.874Z,71.7001
2023-04-18T06:11:00.411Z,71.6943
2023-04-18T06:12:00.940Z,71.6923
2023-04-18T06:13:01.495Z,71.6961
2023-04-18T06:14:02.240Z,71.6956
2023-04-18T06:15:02.866Z,71.6896
2023-04-18T06:16:03.509Z,71.6777
2023-04-18T06:17:04.115Z,71.6670
2023-04-18T06:18:04.749Z,71.6585
2023-04-18T06:19:05.437Z,71.6553
2023-04-18T06:20:05.981Z,71.6517
2023-04-18T06:21:06.503Z,71.6487
2023-04-18T06:22:07.069Z,71.6388
2023-04-18T06:23:07.642Z,71.6249
2023-04-18T06:24:08.172Z,71.6154
2023-04-18T06:25:08.737Z,71.6079
2023-04-18T06:26:09.318Z,71.6014
2023-04-18T06:27:17.683Z,71.5920
2023-04-18T06:28:10.306Z,71.5946
2023-04-18T06:29:10.939Z,71.5768
2023-04-18T06:30:11.467Z,71.5693
2023-04-18T06:31:12.250Z,71.5596
2023-04-18T06:32:12.832Z,71.5648
2023-04-18T06:33:13.434Z,71.5791
2023-04-18T06:34:14.213Z,71.5919
2023-04-18T06:35:15.380Z,71.5960
2023-04-18T06:36:15.944Z,71.5905
2023-04-18T06:37:16.478Z,71.5928
2023-04-18T06:38:17.103Z,71.5900
2023-04-18T06:39:17.707Z,71.5815
2023-04-18T06:40:18.271Z,71.5669
2023-04-18T06:41:18.827Z,71.5589
2023-04-18T06:42:22.079Z,71.5561
2023-04-18T06:43:20.988Z,71.5643
2023-04-18T06:44:21.552Z,71.5697
2023-04-18T06:45:22.118Z,71.5799
2023-04-18T06:46:22.864Z,71.5851
2023-04-18T06:47:23.702Z,71.5913
2023-04-18T06:48:24.267Z,71.5878
2023-04-18T06:49:26.477Z,71.5775
2023-04-18T06:50:24.914Z,71.5692
2023-04-18T06:51:25.434Z,71.5511
2023-04-18T06:52:25.998Z,71.5446
2023-04-18T06:53:26.513Z,71.5381
2023-04-18T06:54:27.181Z,71.5270
2023-04-18T06:55:27.734Z,71.5219
2023-04-18T06:56:28.310Z,71.5167
2023-04-18T06:57:28.784Z,71.5132
2023-04-18T06:58:29.325Z,71.5028
2023-04-18T06:59:29.991Z,71.4917
2023-04-18T07:00:30.708Z,71.4821
2023-04-18T07:01:31.286Z,71.4655
2023-04-18T07:02:32.199Z,71.4648
2023-04-18T07:03:33.063Z,71.4644
2023-04-18T07:04:34.854Z,71.4601
2023-04-18T07:05:35.438Z,71.4456
2023-04-18T07:06:36.094Z,71.4316
2023-04-18T07:07:36.699Z,71.4212
2023-04-18T07:08:37.412Z,71.4086
2023-04-18T07:09:38.023Z,71.4103
2023-04-18T07:10:38.623Z,71.4067
2023-04-18T07:11:39.193Z,71.4074
2023-04-18T07:12:39.751Z,71.4124
2023-04-18T07:13:41.382Z,71.4188
2023-04-18T07:14:42.012Z,71.4319
2023-04-18T07:15:42.569Z,71.4422
2023-04-18T07:16:43.210Z,71.4492
2023-04-18T07:17:43.768Z,71.4567
2023-04-18T07:18:44.373Z,71.4686
2023-04-18T07:19:45.020Z,71.4757
2023-04-18T07:20:45.591Z,71.4654
2023-04-18T07:21:46.267Z,71.4577
2023-04-18T07:22:46.870Z,71.4599
2023-04-18T07:23:47.494Z,71.4561
2023-04-18T07:24:48.138Z,71.4395
2023-04-18T07:25:48.704Z,71.4202
2023-04-18T07:26:49.263Z,71.3923
2023-04-18T07:27:49.834Z,71.3655
2023-04-18T07:28:50.393Z,71.3359
2023-04-18T07:29:51.015Z,71.3021
2023-04-18T07:30:51.621Z,71.2733
2023-04-18T07:31:52.246Z,71.2261
2023-04-18T07:32:52.878Z,71.1580
2023-04-18T07:33:53.466Z,71.0984
2023-04-18T07:34:54.069Z,71.0299
2023-04-18T07:35:54.622Z,70.9679
2023-04-18T07:36:55.190Z,70.9115
2023-04-18T07:37:55.748Z,70.8267
2023-04-18T07:38:56.347Z,70.7381
2023-04-18T07:39:56.859Z,70.6904
2023-04-18T07:40:57.437Z,70.6664
2023-04-18T07:41:57.981Z,70.6436
2023-04-18T07:42:58.544Z,70.5961
2023-04-18T07:43:59.120Z,70.5011
2023-04-18T07:44:59.746Z,70.4285
2023-04-18T07:46:00.323Z,70.3764
2023-04-18T07:47:00.881Z,70.3362
2023-04-18T07:48:01.448Z,70.3071
2023-04-18T07:49:02.316Z,70.2636
2023-04-18T07:50:02.837Z,70.2321
2023-04-18T07:51:03.354Z,70.2042
2023-04-18T07:52:03.881Z,70.1719
2023-04-18T07:53:04.427Z,70.1317
2023-04-18T07:54:04.973Z,70.0863
2023-04-18T07:55:05.580Z,70.0623
2023-04-18T07:56:06.152Z,70.0373
2023-04-18T07:57:06.734Z,70.0124
2023-04-18T07:58:07.263Z,69.9762
2023-04-18T07:59:07.881Z,69.9170
2023-04-18T08:00:08.415Z,69.8408
2023-04-18T08:01:09.013Z,69.8174
2023-04-18T08:02:09.579Z,69.8021
2023-04-18T08:03:10.193Z,69.7526
2023-04-18T08:04:11.321Z,69.7056
2023-04-18T08:05:12.633Z,69.6597
2023-04-18T08:06:13.224Z,69.6069
2023-04-18T08:07:13.730Z,69.5231
2023-04-18T08:08:14.279Z,69.4173
2023-04-18T08:09:15.253Z,69.2980
2023-04-18T08:10:16.581Z,69.1414
2023-04-18T08:11:17.119Z,68.9966
2023-04-18T08:12:17.668Z,68.9413
2023-04-18T08:13:18.193Z,68.8764
2023-04-18T08:14:18.744Z,68.7492
2023-04-18T08:15:19.256Z,68.6539
2023-04-18T08:16:19.860Z,68.5824
2023-04-18T08:17:20.424Z,68.3523
2023-04-18T08:18:21.023Z,68.1794
2023-04-18T08:19:21.528Z,67.9819
2023-04-18T08:20:22.114Z,67.8559
2023-04-18T08:21:22.814Z,67.6317
2023-04-18T08:22:23.334Z,67.4453
2023-04-18T08:23:23.801Z,67.3278
2023-04-18T08:24:24.309Z,67.2494
2023-04-18T08:25:24.865Z,67.0363
2023-04-18T08:26:25.332Z,66.4726
2023-04-18T08:27:25.880Z,65.9289
2023-04-18T08:28:26.335Z,65.3918
2023-04-18T08:29:26.922Z,65.2316
2023-04-18T08:30:27.421Z,65.0778
2023-04-18T08:31:28.026Z,64.8673
2023-04-18T08:32:28.685Z,64.7716
2023-04-18T08:33:29.211Z,64.5129
2023-04-18T08:34:29.831Z,64.5272
2023-04-18T08:35:30.433Z,64.6307
2023-04-18T08:36:31.030Z,64.7118
2023-04-18T08:37:31.568Z,64.7626
2023-04-18T08:38:32.113Z,64.7243
2023-04-18T08:39:32.624Z,64.5974
2023-04-18T08:40:33.214Z,64.5635
2023-04-18T08:41:33.775Z,64.4903
2023-04-18T08:42:34.305Z,64.3159
2023-04-18T08:43:34.785Z,64.3097
2023-04-18T08:44:35.293Z,64.3168
2023-04-18T08:45:35.955Z,64.4237
2023-04-18T08:46:36.599Z,64.4311
2023-04-18T08:47:37.208Z,64.3302
2023-04-18T08:48:37.773Z,64.1715
2023-04-18T08:49:38.338Z,64.0326
2023-04-18T08:50:38.927Z,63.9752
2023-04-18T08:51:39.470Z,63.8649
2023-04-18T08:52:40.013Z,63.7784
2023-04-18T08:53:40.576Z,63.7009
2023-04-18T08:54:41.069Z,63.7958
2023-04-18T08:55:41.623Z,63.9168
2023-04-18T08:56:42.139Z,63.9825
2023-04-18T08:57:42.657Z,63.8937
2023-04-18T08:58:43.211Z,63.8165
2023-04-18T08:59:44.460Z,63.7046
2023-04-18T09:00:44.772Z,63.6782
2023-04-18T09:01:45.398Z,63.7297
2023-04-18T09:02:45.986Z,63.6734
2023-04-18T09:03:46.654Z,63.6431
2023-04-18T09:04:47.253Z,63.6364
2023-04-18T09:05:47.804Z,63.5807
2023-04-18T09:06:48.301Z,63.4094
2023-04-18T09:07:48.856Z,63.4226
2023-04-18T09:08:49.405Z,63.3992
2023-04-18T09:09:50.006Z,63.4422
2023-04-18T09:10:50.599Z,63.5056
2023-04-18T09:11:51.127Z,63.5305
2023-04-18T09:12:51.649Z,63.5568
2023-04-18T09:13:52.166Z,63.5207
2023-04-18T09:14:52.730Z,63.4052
2023-04-18T09:15:53.288Z,63.4683
2023-04-18T09:16:54.016Z,63.4015
2023-04-18T09:17:54.634Z,63.3846
2023-04-18T09:18:55.108Z,63.2163
2023-04-18T09:19:55.613Z,62.8930
2023-04-18T09:20:56.192Z,62.4471
2023-04-18T09:21:56.713Z,62.2238
2023-04-18T09:22:57.288Z,61.9993
2023-04-18T09:23:57.835Z,61.9309
2023-04-18T09:24:58.360Z,61.9017
2023-04-18T09:25:58.916Z,61.8578
2023-04-18T09:26:59.481Z,61.8235
2023-04-18T09:28:00.010Z,61.8034
2023-04-18T09:29:00.652Z,61.8005
2023-04-18T09:30:01.190Z,61.7432
2023-04-18T09:31:01.891Z,61.7140
2023-04-18T09:32:02.495Z,61.8320
2023-04-18T09:33:03.922Z,61.9504
2023-04-18T09:34:04.525Z,61.9787
2023-04-18T09:35:05.129Z,61.9656
2023-04-18T09:36:05.855Z,61.8699
2023-04-18T09:37:07.501Z,61.7580
2023-04-18T09:38:08.148Z,61.6610
2023-04-18T09:39:08.694Z,61.3407
2023-04-18T09:40:09.443Z,60.9955
2023-04-18T09:41:10.003Z,60.8296
2023-04-18T09:42:10.560Z,60.7864
2023-04-18T09:43:11.101Z,60.8294
2023-04-18T09:44:14.292Z,60.9589
2023-04-18T09:45:13.963Z,61.1064
2023-04-18T09:46:14.563Z,61.0686
2023-04-18T09:47:15.082Z,60.9956
2023-04-18T09:48:16.598Z,60.9059
2023-04-18T09:49:17.664Z,60.8350
2023-04-18T09:50:19.153Z,60.7521
2023-04-18T09:51:19.715Z,60.6272
2023-04-18T09:52:20.216Z,60.5904
2023-04-18T09:53:21.070Z,60.6139
2023-04-18T09:54:21.962Z,60.5827
2023-04-18T09:55:22.684Z,60.3591
2023-04-18T09:56:23.410Z,60.2874
2023-04-18T09:57:24.053Z,60.3639
2023-04-18T09:58:24.544Z,60.4057
2023-04-18T09:59:25.089Z,60.3153
2023-04-18T10:00:25.677Z,60.3613
2023-04-18T10:01:26.301Z,60.3087
2023-04-18T10:02:27.018Z,60.1364
2023-04-18T10:03:27.834Z,59.9283
2023-04-18T10:04:28.566Z,59.7763
2023-04-18T10:05:29.292Z,59.8238
2023-04-18T10:06:29.875Z,59.9608
2023-04-18T10:07:30.370Z,59.7170
2023-04-18T10:08:30.948Z,59.7424
2023-04-18T10:09:31.497Z,59.8489
2023-04-18T10:10:32.201Z,59.9131
2023-04-18T10:11:32.709Z,59.7996
2023-04-18T10:12:33.201Z,59.5140
2023-04-18T10:13:33.731Z,59.0932
2023-04-18T10:14:34.253Z,58.7753
2023-04-18T10:15:34.791Z,58.7105
2023-04-18T10:16:36.304Z,58.6011
2023-04-18T10:17:37.220Z,58.5697
2023-04-18T10:18:37.776Z,58.5881
2023-04-18T10:19:38.529Z,58.5052
2023-04-18T10:20:38.998Z,58.0696
2023-04-18T10:21:39.557Z,57.9699
2023-04-18T10:22:40.032Z,57.9758
2023-04-18T10:23:40.625Z,57.7884
2023-04-18T10:24:41.174Z,57.7713
2023-04-18T10:25:43.170Z,57.6569
2023-04-18T10:27:18.942Z,55.3666
2023-04-18T10:28:19.911Z,55.5469
2023-04-18T10:29:20.811Z,56.2747
2023-04-18T10:30:21.878Z,56.5813
2023-04-18T10:31:22.976Z,56.6808
2023-04-18T10:32:24.098Z,56.6473
2023-04-18T10:33:30.834Z,56.5625
2023-04-18T10:34:26.913Z,56.6257
2023-04-18T10:35:27.899Z,56.6358
2023-04-18T10:36:28.975Z,56.5606
2023-04-18T10:37:29.959Z,56.5255
2023-04-18T10:38:30.997Z,56.4530
2023-04-18T10:39:31.989Z,56.4975
2023-04-18T10:40:32.964Z,56.6279
2023-04-18T10:41:33.938Z,56.7061
2023-04-18T10:42:34.917Z,56.8623
2023-04-18T10:43:35.935Z,56.9390
2023-04-18T10:44:36.916Z,56.9843
2023-04-18T10:45:37.878Z,56.9882
2023-04-18T10:46:38.897Z,56.9300
2023-04-18T10:47:40.053Z,56.9404
2023-04-18T10:48:41.428Z,56.8862
2023-04-18T10:49:42.366Z,56.8503
2023-04-18T10:50:43.340Z,56.8307
2023-04-18T10:51:44.282Z,56.6657
2023-04-18T10:52:45.238Z,56.6626
2023-04-18T10:53:46.194Z,56.7380
2023-04-18T10:54:47.068Z,56.6208
2023-04-18T10:55:47.974Z,56.4433
2023-04-18T10:56:48.903Z,56.3858
2023-04-18T10:57:49.858Z,56.2608
2023-04-18T10:58:50.784Z,56.2648
2023-04-18T10:59:51.894Z,56.1662
2023-04-18T11:00:52.874Z,56.0503
2023-04-18T11:01:53.866Z,56.1641
2023-04-18T11:02:55.015Z,56.2738
2023-04-18T11:03:56.278Z,56.1935
2023-04-18T11:04:57.412Z,56.1298
2023-04-18T11:05:58.305Z,56.1884
2023-04-18T11:06:59.853Z,56.0349
2023-04-18T11:08:00.810Z,56.0168
2023-04-18T11:09:02.386Z,55.8502
2023-04-18T11:10:03.316Z,55.4741
2023-04-18T11:11:04.245Z,55.0754
2023-04-18T11:12:05.177Z,54.8745
2023-04-18T11:13:06.139Z,54.9583
2023-04-18T11:14:07.317Z,55.0381
2023-04-18T11:15:08.298Z,55.0205
2023-04-18T11:16:09.226Z,55.0707
2023-04-18T11:17:10.144Z,55.0718
2023-04-18T11:18:11.063Z,55.0228
2023-04-18T11:19:12.018Z,55.0475
2023-04-18T11:20:12.975Z,55.0896
2023-04-18T11:21:13.883Z,54.9003
2023-04-18T11:22:14.788Z,54.7559
2023-04-18T11:23:15.714Z,54.4600
2023-04-18T11:24:16.648Z,54.4004
2023-04-18T11:25:17.591Z,54.5264
2023-04-18T11:26:18.469Z,54.5413
2023-04-18T11:27:19.363Z,54.4088
2023-04-18T11:28:20.283Z,54.1348
2023-04-18T11:29:21.188Z,53.9575
2023-04-18T11:30:22.085Z,53.6549
2023-04-18T11:31:23.050Z,53.5476
2023-04-18T11:32:24.068Z,53.3826
2023-04-18T11:33:25.308Z,53.4428
2023-04-18T11:34:26.256Z,53.5045
2023-04-18T11:35:27.195Z,53.7253
2023-04-18T11:36:28.123Z,53.7747
2023-04-18T11:37:29.052Z,53.6864
2023-04-18T11:38:29.952Z,53.7143
2023-04-18T11:39:30.848Z,53.8871
2023-04-18T11:40:31.823Z,53.8429
2023-04-18T11:41:32.707Z,53.7003
2023-04-18T11:42:33.617Z,53.5579
2023-04-18T11:43:34.513Z,53.4795
2023-04-18T11:44:36.323Z,53.5287
2023-04-18T11:45:37.494Z,53.3878
2023-04-18T11:46:38.641Z,53.2115
2023-04-18T11:47:39.628Z,52.8100
2023-04-18T11:48:40.574Z,52.4606
2023-04-18T11:49:41.422Z,52.2612
2023-04-18T11:50:42.286Z,51.9013
2023-04-18T11:51:43.125Z,51.2209
2023-04-18T11:52:43.969Z,50.9505
2023-04-18T11:53:44.840Z,50.4177
2023-04-18T11:54:45.674Z,49.5896
2023-04-18T11:55:46.522Z,49.2765
2023-04-18T11:56:47.296Z,49.3393
2023-04-18T11:57:48.144Z,49.3600
2023-04-18T11:58:49.009Z,49.1246
2023-04-18T11:59:49.897Z,47.9394
2023-04-18T12:00:50.713Z,46.9399
2023-04-18T12:01:53.082Z,45.8024
2023-04-18T12:02:52.243Z,45.3066
2023-04-18T12:03:53.377Z,45.1426
2023-04-18T12:04:55.304Z,45.2283
2023-04-18T12:05:55.215Z,45.5672
2023-04-18T12:06:56.544Z,45.9836
2023-04-18T12:07:57.371Z,45.8734
2023-04-18T12:08:58.239Z,45.8414
2023-04-18T12:09:59.033Z,45.8825
2023-04-18T12:10:59.884Z,45.4354
2023-04-18T12:12:00.723Z,44.3659
2023-04-18T12:13:01.586Z,43.0678
2023-04-18T12:14:04.017Z,42.4173